sensor_id;sensor_type;location;lat;lon;timestamp;temperature;humidity
2022;DHT22;1015;49.756;6.994;2022-11-15T00:02:10;9.40;99.90
2022;DHT22;1015;49.756;6.994;2022-11-15T00:04:37;9.50;99.90
2022;DHT22;1015;49.756;6.994;2022-11-15T00:07:06;9.50;99.90
2022;DHT22;1015;49.756;6.994;2022-11-15T00:09:33;9.50;99.90
2022;DHT22;1015;49.756;6.994;2022-11-15T00:12:00;9.50;99.90
2022;DHT22;1015;49.756;6.994;2022-11-15T00:14:27;9.60;99.90
2022;DHT22;1015;49.756;6.994;2022-11-15T00:16:54;9.60;99.90
2022;DHT22;1015;49.756;6.994;2022-11-15T00:19:21;9.60;99.90
2022;DHT22;1015;49.756;6.994;2022-11-15T00:21:48;9.60;99.90
2022;DHT22;1015;49.756;6.994;2022-11-15T00:24:16;9.60;99.90
2022;DHT22;1015;49.756;6.994;2022-11-15T00:26:43;9.60;99.90
2022;DHT22;1015;49.756;6.994;2022-11-15T00:29:10;9.60;99.90
2022;DHT22;1015;49.756;6.994;2022-11-15T00:31:37;9.60;99.90
2022;DHT22;1015;49.756;6.994;2022-11-15T00:34:04;9.60;99.90
2022;DHT22;1015;49.756;6.994;2022-11-15T00:36:33;9.60;99.90
2022;DHT22;1015;49.756;6.994;2022-11-15T00:39:00;9.60;99.90
2022;DHT22;1015;49.756;6.994;2022-11-15T00:41:28;9.60;99.90
2022;DHT22;1015;49.756;6.994;2022-11-15T00:43:56;9.60;99.90
2022;DHT22;1015;49.756;6.994;2022-11-15T00:46:23;9.60;99.90
2022;DHT22;1015;49.756;6.994;2022-11-15T00:48:50;9.60;99.90
2022;DHT22;1015;49.756;6.994;2022-11-15T00:51:17;9.70;99.90
2022;DHT22;1015;49.756;6.994;2022-11-15T00:53:43;9.70;99.90
2022;DHT22;1015;49.756;6.994;2022-11-15T00:56:10;9.60;99.90
2022;DHT22;1015;49.756;6.994;2022-11-15T00:58:39;9.60;99.90
2022;DHT22;1015;49.756;6.994;2022-11-15T01:01:07;9.60;99.90
2022;DHT22;1015;49.756;6.994;2022-11-15T01:03:35;9.60;99.90
2022;DHT22;1015;49.756;6.994;2022-11-15T01:06:02;9.60;99.90
2022;DHT22;1015;49.756;6.994;2022-11-15T01:08:29;9.60;99.90
2022;DHT22;1015;49.756;6.994;2022-11-15T01:11:00;9.60;99.90
2022;DHT22;1015;49.756;6.994;2022-11-15T01:13:30;9.60;99.90
2022;DHT22;1015;49.756;6.994;2022-11-15T01:15:58;9.60;99.90
2022;DHT22;1015;49.756;6.994;2022-11-15T01:18:25;9.60;99.90
2022;DHT22;1015;49.756;6.994;2022-11-15T01:20:52;9.50;99.90
2022;DHT22;1015;49.756;6.994;2022-11-15T01:23:19;9.50;99.90
2022;DHT22;1015;49.756;6.994;2022-11-15T01:25:46;9.50;99.90
2022;DHT22;1015;49.756;6.994;2022-11-15T01:28:14;9.50;99.90
2022;DHT22;1015;49.756;6.994;2022-11-15T01:30:41;9.50;99.90
2022;DHT22;1015;49.756;6.994;2022-11-15T01:33:09;9.50;99.90
2022;DHT22;1015;49.756;6.994;2022-11-15T01:35:38;9.50;99.90
2022;DHT22;1015;49.756;6.994;2022-11-15T01:38:05;9.50;99.90
2022;DHT22;1015;49.756;6.994;2022-11-15T01:40:32;9.50;99.90
2022;DHT22;1015;49.756;6.994;2022-11-15T01:45:48;9.50;99.90
2022;DHT22;1015;49.756;6.994;2022-11-15T01:48:19;9.50;99.90
2022;DHT22;1015;49.756;6.994;2022-11-15T01:50:47;9.50;99.90
2022;DHT22;1015;49.756;6.994;2022-11-15T01:53:14;9.50;99.90
2022;DHT22;1015;49.756;6.994;2022-11-15T01:55:42;9.50;99.90
2022;DHT22;1015;49.756;6.994;2022-11-15T01:58:09;9.40;99.90
2022;DHT22;1015;49.756;6.994;2022-11-15T02:00:36;9.50;99.90
2022;DHT22;1015;49.756;6.994;2022-11-15T02:03:03;9.40;99.90
2022;DHT22;1015;49.756;6.994;2022-11-15T02:05:31;9.40;99.90
2022;DHT22;1015;49.756;6.994;2022-11-15T02:08:00;9.40;99.90
2022;DHT22;1015;49.756;6.994;2022-11-15T02:10:27;9.50;99.90
2022;DHT22;1015;49.756;6.994;2022-11-15T02:12:55;9.40;99.90
2022;DHT22;1015;49.756;6.994;2022-11-15T02:15:24;9.40;99.90
2022;DHT22;1015;49.756;6.994;2022-11-15T02:18:04;9.40;99.90
2022;DHT22;1015;49.756;6.994;2022-11-15T02:20:46;9.40;99.90
2022;DHT22;1015;49.756;6.994;2022-11-15T02:29:27;9.40;99.90
2022;DHT22;1015;49.756;6.994;2022-11-15T02:32:02;9.30;99.90
2022;DHT22;1015;49.756;6.994;2022-11-15T02:34:40;9.30;99.90
2022;DHT22;1015;49.756;6.994;2022-11-15T02:37:15;9.30;99.90
2022;DHT22;1015;49.756;6.994;2022-11-15T02:39:49;9.30;99.90
2022;DHT22;1015;49.756;6.994;2022-11-15T02:42:19;9.30;99.90
2022;DHT22;1015;49.756;6.994;2022-11-15T02:45:04;9.20;99.90
2022;DHT22;1015;49.756;6.994;2022-11-15T02:47:41;9.20;99.90
2022;DHT22;1015;49.756;6.994;2022-11-15T02:50:11;9.00;99.90
2022;DHT22;1015;49.756;6.994;2022-11-15T02:52:39;9.00;99.90
2022;DHT22;1015;49.756;6.994;2022-11-15T02:55:27;9.00;99.90
2022;DHT22;1015;49.756;6.994;2022-11-15T03:00:48;8.90;99.90
2022;DHT22;1015;49.756;6.994;2022-11-15T03:03:29;9.00;99.90
2022;DHT22;1015;49.756;6.994;2022-11-15T03:06:05;9.00;99.90
2022;DHT22;1015;49.756;6.994;2022-11-15T03:08:45;9.00;99.90
2022;DHT22;1015;49.756;6.994;2022-11-15T03:11:18;9.10;99.90
2022;DHT22;1015;49.756;6.994;2022-11-15T03:13:51;9.10;99.90
2022;DHT22;1015;49.756;6.994;2022-11-15T03:16:26;9.00;99.90
2022;DHT22;1015;49.756;6.994;2022-11-15T03:18:59;9.00;99.90
2022;DHT22;1015;49.756;6.994;2022-11-15T03:21:28;9.00;99.90
2022;DHT22;1015;49.756;6.994;2022-11-15T03:23:59;9.00;99.90
2022;DHT22;1015;49.756;6.994;2022-11-15T03:26:28;9.00;99.90
2022;DHT22;1015;49.756;6.994;2022-11-15T03:29:00;9.00;99.90
2022;DHT22;1015;49.756;6.994;2022-11-15T03:31:32;9.10;99.90
2022;DHT22;1015;49.756;6.994;2022-11-15T03:34:22;9.00;99.90
2022;DHT22;1015;49.756;6.994;2022-11-15T03:36:51;9.00;99.90
2022;DHT22;1015;49.756;6.994;2022-11-15T03:39:20;9.00;99.90
2022;DHT22;1015;49.756;6.994;2022-11-15T03:41:50;9.00;99.90
2022;DHT22;1015;49.756;6.994;2022-11-15T03:44:31;9.00;99.90
2022;DHT22;1015;49.756;6.994;2022-11-15T03:47:06;9.00;99.90
2022;DHT22;1015;49.756;6.994;2022-11-15T03:49:40;8.90;99.90
2022;DHT22;1015;49.756;6.994;2022-11-15T03:52:10;8.80;99.90
2022;DHT22;1015;49.756;6.994;2022-11-15T03:54:47;8.80;99.90
2022;DHT22;1015;49.756;6.994;2022-11-15T03:57:15;8.80;99.90
2022;DHT22;1015;49.756;6.994;2022-11-15T03:59:42;8.80;99.90
2022;DHT22;1015;49.756;6.994;2022-11-15T04:02:09;8.80;99.90
2022;DHT22;1015;49.756;6.994;2022-11-15T04:04:37;8.80;99.90
2022;DHT22;1015;49.756;6.994;2022-11-15T04:07:04;8.80;99.90
2022;DHT22;1015;49.756;6.994;2022-11-15T04:09:31;8.80;99.90
2022;DHT22;1015;49.756;6.994;2022-11-15T04:11:58;8.90;99.90
2022;DHT22;1015;49.756;6.994;2022-11-15T04:14:25;8.90;99.90
2022;DHT22;1015;49.756;6.994;2022-11-15T04:16:52;8.90;99.90
2022;DHT22;1015;49.756;6.994;2022-11-15T04:19:19;8.90;99.90
2022;DHT22;1015;49.756;6.994;2022-11-15T04:22:07;8.90;99.90
2022;DHT22;1015;49.756;6.994;2022-11-15T04:24:52;8.90;99.90
2022;DHT22;1015;49.756;6.994;2022-11-15T04:27:19;9.00;99.90
2022;DHT22;1015;49.756;6.994;2022-11-15T04:29:46;8.90;99.90
2022;DHT22;1015;49.756;6.994;2022-11-15T04:32:12;8.80;99.90
2022;DHT22;1015;49.756;6.994;2022-11-15T04:34:39;8.80;99.90
2022;DHT22;1015;49.756;6.994;2022-11-15T04:37:08;8.80;99.90
2022;DHT22;1015;49.756;6.994;2022-11-15T04:39:41;8.80;99.90
2022;DHT22;1015;49.756;6.994;2022-11-15T04:42:08;8.80;99.90
2022;DHT22;1015;49.756;6.994;2022-11-15T04:44:36;8.90;99.90
2022;DHT22;1015;49.756;6.994;2022-11-15T04:47:03;8.80;99.90
2022;DHT22;1015;49.756;6.994;2022-11-15T04:49:30;8.80;99.90
2022;DHT22;1015;49.756;6.994;2022-11-15T04:51:57;8.80;99.90
2022;DHT22;1015;49.756;6.994;2022-11-15T04:54:25;8.70;99.90
2022;DHT22;1015;49.756;6.994;2022-11-15T04:56:52;8.60;99.90
2022;DHT22;1015;49.756;6.994;2022-11-15T04:59:19;8.50;99.90
2022;DHT22;1015;49.756;6.994;2022-11-15T05:01:46;8.50;99.90
2022;DHT22;1015;49.756;6.994;2022-11-15T05:04:13;8.50;99.90
2022;DHT22;1015;49.756;6.994;2022-11-15T05:06:45;8.60;99.90
2022;DHT22;1015;49.756;6.994;2022-11-15T05:09:12;8.60;99.90
2022;DHT22;1015;49.756;6.994;2022-11-15T05:11:41;8.60;99.90
2022;DHT22;1015;49.756;6.994;2022-11-15T05:14:08;8.60;99.90
2022;DHT22;1015;49.756;6.994;2022-11-15T05:16:35;8.60;99.90
2022;DHT22;1015;49.756;6.994;2022-11-15T05:19:03;8.60;99.90
2022;DHT22;1015;49.756;6.994;2022-11-15T05:21:30;8.60;99.90
2022;DHT22;1015;49.756;6.994;2022-11-15T05:23:57;8.60;99.90
2022;DHT22;1015;49.756;6.994;2022-11-15T05:26:24;8.50;99.90
2022;DHT22;1015;49.756;6.994;2022-11-15T05:28:54;8.50;99.90
2022;DHT22;1015;49.756;6.994;2022-11-15T05:31:22;8.40;99.90
2022;DHT22;1015;49.756;6.994;2022-11-15T05:33:49;8.40;99.90
2022;DHT22;1015;49.756;6.994;2022-11-15T05:36:20;8.40;99.90
2022;DHT22;1015;49.756;6.994;2022-11-15T05:38:49;8.40;99.90
2022;DHT22;1015;49.756;6.994;2022-11-15T05:41:17;8.40;99.90
2022;DHT22;1015;49.756;6.994;2022-11-15T05:43:46;8.40;99.90
2022;DHT22;1015;49.756;6.994;2022-11-15T05:46:17;8.40;99.90
2022;DHT22;1015;49.756;6.994;2022-11-15T05:48:46;8.30;99.90
2022;DHT22;1015;49.756;6.994;2022-11-15T05:51:17;8.40;99.90
2022;DHT22;1015;49.756;6.994;2022-11-15T05:53:44;8.40;99.90
2022;DHT22;1015;49.756;6.994;2022-11-15T05:56:12;8.40;99.90
2022;DHT22;1015;49.756;6.994;2022-11-15T05:58:40;8.40;99.90
2022;DHT22;1015;49.756;6.994;2022-11-15T06:01:08;8.40;99.90
2022;DHT22;1015;49.756;6.994;2022-11-15T06:03:37;8.30;99.90
2022;DHT22;1015;49.756;6.994;2022-11-15T06:06:05;8.20;99.90
2022;DHT22;1015;49.756;6.994;2022-11-15T06:08:32;8.20;99.90
2022;DHT22;1015;49.756;6.994;2022-11-15T06:11:03;8.10;99.90
2022;DHT22;1015;49.756;6.994;2022-11-15T06:13:31;8.10;99.90
2022;DHT22;1015;49.756;6.994;2022-11-15T06:15:58;8.10;99.90
2022;DHT22;1015;49.756;6.994;2022-11-15T06:18:25;8.20;99.90
2022;DHT22;1015;49.756;6.994;2022-11-15T06:20:58;8.20;99.90
2022;DHT22;1015;49.756;6.994;2022-11-15T06:23:26;8.20;99.90
2022;DHT22;1015;49.756;6.994;2022-11-15T06:25:53;8.20;99.90
2022;DHT22;1015;49.756;6.994;2022-11-15T06:28:20;8.20;99.90
2022;DHT22;1015;49.756;6.994;2022-11-15T06:30:47;8.30;99.90
2022;DHT22;1015;49.756;6.994;2022-11-15T06:33:14;8.30;99.90
2022;DHT22;1015;49.756;6.994;2022-11-15T06:35:41;8.20;99.90
2022;DHT22;1015;49.756;6.994;2022-11-15T06:38:11;8.30;99.90
2022;DHT22;1015;49.756;6.994;2022-11-15T06:40:38;8.30;99.90
2022;DHT22;1015;49.756;6.994;2022-11-15T06:43:06;8.20;99.90
2022;DHT22;1015;49.756;6.994;2022-11-15T06:45:33;8.30;99.90
2022;DHT22;1015;49.756;6.994;2022-11-15T06:48:00;8.20;99.90
2022;DHT22;1015;49.756;6.994;2022-11-15T06:50:27;8.20;99.90
2022;DHT22;1015;49.756;6.994;2022-11-15T06:52:54;8.20;99.90
2022;DHT22;1015;49.756;6.994;2022-11-15T06:55:22;8.20;99.90
2022;DHT22;1015;49.756;6.994;2022-11-15T06:57:50;8.20;99.90
2022;DHT22;1015;49.756;6.994;2022-11-15T07:00:19;8.20;99.90
2022;DHT22;1015;49.756;6.994;2022-11-15T07:02:47;8.20;99.90
2022;DHT22;1015;49.756;6.994;2022-11-15T07:05:14;8.20;99.90
2022;DHT22;1015;49.756;6.994;2022-11-15T07:07:41;8.20;99.90
2022;DHT22;1015;49.756;6.994;2022-11-15T07:10:09;8.10;99.90
2022;DHT22;1015;49.756;6.994;2022-11-15T07:12:37;8.10;99.90
2022;DHT22;1015;49.756;6.994;2022-11-15T07:15:05;8.20;99.90
2022;DHT22;1015;49.756;6.994;2022-11-15T07:17:32;8.20;99.90
2022;DHT22;1015;49.756;6.994;2022-11-15T07:19:59;8.20;99.90
2022;DHT22;1015;49.756;6.994;2022-11-15T07:22:26;8.20;99.90
2022;DHT22;1015;49.756;6.994;2022-11-15T07:24:53;8.20;99.90
2022;DHT22;1015;49.756;6.994;2022-11-15T07:27:20;8.20;99.90
2022;DHT22;1015;49.756;6.994;2022-11-15T07:29:48;8.20;99.90
2022;DHT22;1015;49.756;6.994;2022-11-15T07:32:15;8.20;99.90
2022;DHT22;1015;49.756;6.994;2022-11-15T07:34:42;8.30;99.90
2022;DHT22;1015;49.756;6.994;2022-11-15T07:37:11;8.30;99.90
2022;DHT22;1015;49.756;6.994;2022-11-15T07:39:38;8.40;99.90
2022;DHT22;1015;49.756;6.994;2022-11-15T07:42:05;8.40;99.90
2022;DHT22;1015;49.756;6.994;2022-11-15T07:44:51;8.40;99.90
2022;DHT22;1015;49.756;6.994;2022-11-15T07:47:18;8.50;99.90
2022;DHT22;1015;49.756;6.994;2022-11-15T07:49:45;8.50;99.90
2022;DHT22;1015;49.756;6.994;2022-11-15T07:52:12;8.50;99.90
2022;DHT22;1015;49.756;6.994;2022-11-15T07:54:39;8.50;99.90
2022;DHT22;1015;49.756;6.994;2022-11-15T07:57:06;8.50;99.90
2022;DHT22;1015;49.756;6.994;2022-11-15T07:59:34;8.50;99.90
2022;DHT22;1015;49.756;6.994;2022-11-15T08:02:03;8.50;99.90
2022;DHT22;1015;49.756;6.994;2022-11-15T08:04:30;8.50;99.90
2022;DHT22;1015;49.756;6.994;2022-11-15T08:06:57;8.60;99.90
2022;DHT22;1015;49.756;6.994;2022-11-15T08:09:24;8.60;99.90
2022;DHT22;1015;49.756;6.994;2022-11-15T08:11:51;8.60;99.90
2022;DHT22;1015;49.756;6.994;2022-11-15T08:14:18;8.60;99.90
2022;DHT22;1015;49.756;6.994;2022-11-15T08:16:47;8.70;99.90
2022;DHT22;1015;49.756;6.994;2022-11-15T08:19:15;8.70;99.90
2022;DHT22;1015;49.756;6.994;2022-11-15T08:21:42;8.80;99.90
2022;DHT22;1015;49.756;6.994;2022-11-15T08:24:10;8.80;99.90
2022;DHT22;1015;49.756;6.994;2022-11-15T08:26:37;9.00;99.90
2022;DHT22;1015;49.756;6.994;2022-11-15T08:29:05;9.00;99.90
2022;DHT22;1015;49.756;6.994;2022-11-15T08:31:33;9.10;99.90
2022;DHT22;1015;49.756;6.994;2022-11-15T08:34:00;9.20;99.90
2022;DHT22;1015;49.756;6.994;2022-11-15T08:36:29;9.30;99.90
2022;DHT22;1015;49.756;6.994;2022-11-15T08:38:56;9.30;99.90
2022;DHT22;1015;49.756;6.994;2022-11-15T08:41:27;9.30;99.90
2022;DHT22;1015;49.756;6.994;2022-11-15T08:43:54;9.40;99.90
2022;DHT22;1015;49.756;6.994;2022-11-15T08:46:21;9.50;99.90
2022;DHT22;1015;49.756;6.994;2022-11-15T08:48:48;9.60;99.90
2022;DHT22;1015;49.756;6.994;2022-11-15T08:51:15;9.70;99.90
2022;DHT22;1015;49.756;6.994;2022-11-15T08:53:44;9.70;99.90
2022;DHT22;1015;49.756;6.994;2022-11-15T08:56:13;9.80;99.90
2022;DHT22;1015;49.756;6.994;2022-11-15T08:58:40;9.80;99.90
2022;DHT22;1015;49.756;6.994;2022-11-15T09:01:15;9.90;99.90
2022;DHT22;1015;49.756;6.994;2022-11-15T09:03:42;9.90;99.90
2022;DHT22;1015;49.756;6.994;2022-11-15T09:06:09;10.10;99.90
2022;DHT22;1015;49.756;6.994;2022-11-15T09:08:36;10.20;99.90
2022;DHT22;1015;49.756;6.994;2022-11-15T09:11:05;10.20;99.90
2022;DHT22;1015;49.756;6.994;2022-11-15T09:13:33;10.20;99.90
2022;DHT22;1015;49.756;6.994;2022-11-15T09:16:00;10.40;99.90
2022;DHT22;1015;49.756;6.994;2022-11-15T09:18:28;10.60;99.90
2022;DHT22;1015;49.756;6.994;2022-11-15T09:20:55;10.60;99.90
2022;DHT22;1015;49.756;6.994;2022-11-15T09:23:23;10.70;99.90
2022;DHT22;1015;49.756;6.994;2022-11-15T09:25:50;10.80;99.90
2022;DHT22;1015;49.756;6.994;2022-11-15T09:28:19;11.00;99.90
2022;DHT22;1015;49.756;6.994;2022-11-15T09:30:46;11.20;99.90
2022;DHT22;1015;49.756;6.994;2022-11-15T09:33:13;11.20;99.90
2022;DHT22;1015;49.756;6.994;2022-11-15T09:35:40;11.10;99.90
2022;DHT22;1015;49.756;6.994;2022-11-15T09:38:07;11.00;99.90
2022;DHT22;1015;49.756;6.994;2022-11-15T09:40:36;10.90;99.90
2022;DHT22;1015;49.756;6.994;2022-11-15T09:43:27;10.80;99.90
2022;DHT22;1015;49.756;6.994;2022-11-15T09:46:04;10.90;99.90
2022;DHT22;1015;49.756;6.994;2022-11-15T09:48:50;11.00;99.90
2022;DHT22;1015;49.756;6.994;2022-11-15T09:51:25;11.10;99.90
2022;DHT22;1015;49.756;6.994;2022-11-15T09:53:59;11.10;99.90
2022;DHT22;1015;49.756;6.994;2022-11-15T09:56:30;11.20;99.90
2022;DHT22;1015;49.756;6.994;2022-11-15T09:59:08;11.20;99.90
2022;DHT22;1015;49.756;6.994;2022-11-15T10:01:45;11.20;99.90
2022;DHT22;1015;49.756;6.994;2022-11-15T10:04:15;11.30;99.90
2022;DHT22;1015;49.756;6.994;2022-11-15T10:06:46;11.40;99.90
2022;DHT22;1015;49.756;6.994;2022-11-15T10:09:19;11.40;99.90
2022;DHT22;1015;49.756;6.994;2022-11-15T10:11:48;11.40;99.90
2022;DHT22;1015;49.756;6.994;2022-11-15T10:14:19;11.40;99.90
2022;DHT22;1015;49.756;6.994;2022-11-15T10:19:56;11.30;99.90
2022;DHT22;1015;49.756;6.994;2022-11-15T10:22:29;11.30;99.90
2022;DHT22;1015;49.756;6.994;2022-11-15T10:25:11;11.40;99.90
2022;DHT22;1015;49.756;6.994;2022-11-15T10:27:40;11.30;99.90
2022;DHT22;1015;49.756;6.994;2022-11-15T10:30:15;11.30;99.90
2022;DHT22;1015;49.756;6.994;2022-11-15T10:32:44;11.40;99.90
2022;DHT22;1015;49.756;6.994;2022-11-15T10:35:21;11.40;99.90
2022;DHT22;1015;49.756;6.994;2022-11-15T10:37:48;11.60;99.90
2022;DHT22;1015;49.756;6.994;2022-11-15T10:40:18;11.80;99.90
2022;DHT22;1015;49.756;6.994;2022-11-15T10:42:46;12.20;99.90
2022;DHT22;1015;49.756;6.994;2022-11-15T10:45:25;12.40;99.90
2022;DHT22;1015;49.756;6.994;2022-11-15T10:47:53;12.50;99.90
2022;DHT22;1015;49.756;6.994;2022-11-15T10:50:31;12.50;99.90
2022;DHT22;1015;49.756;6.994;2022-11-15T10:52:59;12.10;99.90
2022;DHT22;1015;49.756;6.994;2022-11-15T10:55:30;11.90;99.90
2022;DHT22;1015;49.756;6.994;2022-11-15T10:58:03;11.80;99.90
2022;DHT22;1015;49.756;6.994;2022-11-15T11:00:34;12.00;99.90
2022;DHT22;1015;49.756;6.994;2022-11-15T11:03:03;12.20;99.90
2022;DHT22;1015;49.756;6.994;2022-11-15T11:05:34;12.30;99.90
2022;DHT22;1015;49.756;6.994;2022-11-15T11:08:04;12.50;99.90
2022;DHT22;1015;49.756;6.994;2022-11-15T11:10:32;12.70;99.90
2022;DHT22;1015;49.756;6.994;2022-11-15T11:13:13;12.90;99.90
2022;DHT22;1015;49.756;6.994;2022-11-15T11:15:44;13.00;99.90
2022;DHT22;1015;49.756;6.994;2022-11-15T11:18:18;13.20;99.90
2022;DHT22;1015;49.756;6.994;2022-11-15T11:20:51;13.10;99.90
2022;DHT22;1015;49.756;6.994;2022-11-15T11:23:36;13.10;99.90
2022;DHT22;1015;49.756;6.994;2022-11-15T11:26:29;12.80;99.90
2022;DHT22;1015;49.756;6.994;2022-11-15T11:29:04;12.80;99.90
2022;DHT22;1015;49.756;6.994;2022-11-15T11:31:40;12.50;99.90
2022;DHT22;1015;49.756;6.994;2022-11-15T11:34:16;12.50;99.90
2022;DHT22;1015;49.756;6.994;2022-11-15T11:36:49;12.40;99.90
2022;DHT22;1015;49.756;6.994;2022-11-15T11:39:24;12.50;99.90
2022;DHT22;1015;49.756;6.994;2022-11-15T11:42:03;12.50;99.90
2022;DHT22;1015;49.756;6.994;2022-11-15T11:44:46;12.50;99.90
2022;DHT22;1015;49.756;6.994;2022-11-15T11:47:21;12.40;99.90
2022;DHT22;1015;49.756;6.994;2022-11-15T11:49:51;12.60;99.90
2022;DHT22;1015;49.756;6.994;2022-11-15T11:52:23;12.70;99.90
2022;DHT22;1015;49.756;6.994;2022-11-15T11:55:00;12.90;99.90
2022;DHT22;1015;49.756;6.994;2022-11-15T11:57:33;12.90;99.90
2022;DHT22;1015;49.756;6.994;2022-11-15T12:00:12;12.70;99.90
2022;DHT22;1015;49.756;6.994;2022-11-15T12:02:44;12.70;99.90
2022;DHT22;1015;49.756;6.994;2022-11-15T12:05:16;12.60;99.90
2022;DHT22;1015;49.756;6.994;2022-11-15T12:07:46;12.70;99.90
2022;DHT22;1015;49.756;6.994;2022-11-15T12:10:19;12.60;99.90
2022;DHT22;1015;49.756;6.994;2022-11-15T12:12:53;12.70;99.90
2022;DHT22;1015;49.756;6.994;2022-11-15T12:15:24;12.60;99.90
2022;DHT22;1015;49.756;6.994;2022-11-15T12:17:55;12.80;99.90
2022;DHT22;1015;49.756;6.994;2022-11-15T12:20:32;12.90;99.90
2022;DHT22;1015;49.756;6.994;2022-11-15T12:23:04;12.70;99.90
2022;DHT22;1015;49.756;6.994;2022-11-15T12:25:38;12.60;99.90
2022;DHT22;1015;49.756;6.994;2022-11-15T12:28:14;12.60;99.90
2022;DHT22;1015;49.756;6.994;2022-11-15T12:30:45;12.40;99.90
2022;DHT22;1015;49.756;6.994;2022-11-15T12:33:34;12.80;99.90
2022;DHT22;1015;49.756;6.994;2022-11-15T12:36:03;12.90;99.90
2022;DHT22;1015;49.756;6.994;2022-11-15T12:38:50;12.90;99.90
2022;DHT22;1015;49.756;6.994;2022-11-15T12:41:19;12.80;99.90
2022;DHT22;1015;49.756;6.994;2022-11-15T12:43:47;12.70;99.90
2022;DHT22;1015;49.756;6.994;2022-11-15T12:46:21;12.60;99.90
2022;DHT22;1015;49.756;6.994;2022-11-15T12:48:52;12.60;99.90
2022;DHT22;1015;49.756;6.994;2022-11-15T12:51:21;12.70;99.90
2022;DHT22;1015;49.756;6.994;2022-11-15T12:53:48;13.00;99.90
2022;DHT22;1015;49.756;6.994;2022-11-15T12:56:23;13.20;99.90
2022;DHT22;1015;49.756;6.994;2022-11-15T12:58:53;13.40;99.90
2022;DHT22;1015;49.756;6.994;2022-11-15T13:04:29;13.20;99.90
2022;DHT22;1015;49.756;6.994;2022-11-15T13:06:59;13.00;99.90
2022;DHT22;1015;49.756;6.994;2022-11-15T13:09:55;13.10;99.90
2022;DHT22;1015;49.756;6.994;2022-11-15T13:12:54;13.10;99.90
2022;DHT22;1015;49.756;6.994;2022-11-15T13:15:37;13.10;99.90
2022;DHT22;1015;49.756;6.994;2022-11-15T13:18:38;13.10;99.90
2022;DHT22;1015;49.756;6.994;2022-11-15T13:21:19;13.00;99.90
2022;DHT22;1015;49.756;6.994;2022-11-15T13:24:04;13.00;99.90
2022;DHT22;1015;49.756;6.994;2022-11-15T13:26:38;13.10;99.90
2022;DHT22;1015;49.756;6.994;2022-11-15T13:29:15;13.20;99.90
2022;DHT22;1015;49.756;6.994;2022-11-15T13:31:44;13.40;99.90
2022;DHT22;1015;49.756;6.994;2022-11-15T13:34:22;13.40;99.90
2022;DHT22;1015;49.756;6.994;2022-11-15T13:36:51;13.10;99.90
2022;DHT22;1015;49.756;6.994;2022-11-15T13:39:27;13.10;99.90
2022;DHT22;1015;49.756;6.994;2022-11-15T13:41:54;12.90;99.90
2022;DHT22;1015;49.756;6.994;2022-11-15T13:44:23;12.80;99.90
2022;DHT22;1015;49.756;6.994;2022-11-15T13:47:01;12.70;99.90
2022;DHT22;1015;49.756;6.994;2022-11-15T13:49:30;12.60;99.90
2022;DHT22;1015;49.756;6.994;2022-11-15T13:52:00;12.40;99.90
2022;DHT22;1015;49.756;6.994;2022-11-15T13:54:30;12.40;99.90
2022;DHT22;1015;49.756;6.994;2022-11-15T13:57:00;12.50;99.90
2022;DHT22;1015;49.756;6.994;2022-11-15T13:59:30;12.40;99.90
2022;DHT22;1015;49.756;6.994;2022-11-15T14:01:59;12.40;99.90
2022;DHT22;1015;49.756;6.994;2022-11-15T14:04:28;12.50;99.90
2022;DHT22;1015;49.756;6.994;2022-11-15T14:07:01;12.50;99.90
2022;DHT22;1015;49.756;6.994;2022-11-15T14:09:36;12.50;99.90
2022;DHT22;1015;49.756;6.994;2022-11-15T14:12:22;12.60;99.90
2022;DHT22;1015;49.756;6.994;2022-11-15T14:14:50;12.50;99.90
2022;DHT22;1015;49.756;6.994;2022-11-15T14:17:20;12.40;99.90
2022;DHT22;1015;49.756;6.994;2022-11-15T14:19:49;12.40;99.90
2022;DHT22;1015;49.756;6.994;2022-11-15T14:22:20;12.40;99.90
2022;DHT22;1015;49.756;6.994;2022-11-15T14:25:13;12.30;99.90
2022;DHT22;1015;49.756;6.994;2022-11-15T14:27:41;12.20;99.90
2022;DHT22;1015;49.756;6.994;2022-11-15T14:30:13;12.10;99.90
2022;DHT22;1015;49.756;6.994;2022-11-15T14:32:44;12.00;99.90
2022;DHT22;1015;49.756;6.994;2022-11-15T14:35:15;11.90;99.90
2022;DHT22;1015;49.756;6.994;2022-11-15T14:37:44;12.00;99.90
2022;DHT22;1015;49.756;6.994;2022-11-15T14:40:13;12.00;99.90
2022;DHT22;1015;49.756;6.994;2022-11-15T14:42:40;12.00;99.90
2022;DHT22;1015;49.756;6.994;2022-11-15T14:45:11;12.00;99.90
2022;DHT22;1015;49.756;6.994;2022-11-15T14:47:39;12.00;99.90
2022;DHT22;1015;49.756;6.994;2022-11-15T14:50:10;11.90;99.90
2022;DHT22;1015;49.756;6.994;2022-11-15T14:52:37;11.90;99.90
2022;DHT22;1015;49.756;6.994;2022-11-15T14:55:15;11.90;99.90
2022;DHT22;1015;49.756;6.994;2022-11-15T14:57:43;11.90;99.90
2022;DHT22;1015;49.756;6.994;2022-11-15T15:00:11;11.90;99.90
2022;DHT22;1015;49.756;6.994;2022-11-15T15:02:38;11.90;99.90
2022;DHT22;1015;49.756;6.994;2022-11-15T15:05:14;11.80;99.90
2022;DHT22;1015;49.756;6.994;2022-11-15T15:07:41;11.70;99.90
2022;DHT22;1015;49.756;6.994;2022-11-15T15:10:10;11.60;99.90
2022;DHT22;1015;49.756;6.994;2022-11-15T15:12:38;11.70;99.90
2022;DHT22;1015;49.756;6.994;2022-11-15T15:15:08;11.60;99.90
2022;DHT22;1015;49.756;6.994;2022-11-15T15:17:38;11.60;99.90
2022;DHT22;1015;49.756;6.994;2022-11-15T15:20:06;11.50;99.90
2022;DHT22;1015;49.756;6.994;2022-11-15T15:22:34;11.50;99.90
2022;DHT22;1015;49.756;6.994;2022-11-15T15:25:01;11.60;99.90
2022;DHT22;1015;49.756;6.994;2022-11-15T15:27:29;11.50;99.90
2022;DHT22;1015;49.756;6.994;2022-11-15T15:29:56;11.50;99.90
2022;DHT22;1015;49.756;6.994;2022-11-15T15:32:23;11.50;99.90
2022;DHT22;1015;49.756;6.994;2022-11-15T15:34:50;11.50;99.90
2022;DHT22;1015;49.756;6.994;2022-11-15T15:37:22;11.40;99.90
2022;DHT22;1015;49.756;6.994;2022-11-15T15:39:51;11.30;99.90
2022;DHT22;1015;49.756;6.994;2022-11-15T15:42:18;11.20;99.90
2022;DHT22;1015;49.756;6.994;2022-11-15T15:44:47;11.20;99.90
2022;DHT22;1015;49.756;6.994;2022-11-15T15:47:16;11.10;99.90
2022;DHT22;1015;49.756;6.994;2022-11-15T15:49:43;11.10;99.90
2022;DHT22;1015;49.756;6.994;2022-11-15T15:52:10;11.10;99.90
2022;DHT22;1015;49.756;6.994;2022-11-15T15:54:38;11.00;99.90
2022;DHT22;1015;49.756;6.994;2022-11-15T15:57:06;11.00;99.90
2022;DHT22;1015;49.756;6.994;2022-11-15T15:59:33;11.00;99.90
2022;DHT22;1015;49.756;6.994;2022-11-15T16:02:02;11.00;99.90
2022;DHT22;1015;49.756;6.994;2022-11-15T16:04:29;10.90;99.90
2022;DHT22;1015;49.756;6.994;2022-11-15T16:06:58;10.90;99.90
2022;DHT22;1015;49.756;6.994;2022-11-15T16:09:25;10.90;99.90
2022;DHT22;1015;49.756;6.994;2022-11-15T16:12:06;10.90;99.90
2022;DHT22;1015;49.756;6.994;2022-11-15T16:14:33;10.90;99.90
2022;DHT22;1015;49.756;6.994;2022-11-15T16:17:02;10.90;99.90
2022;DHT22;1015;49.756;6.994;2022-11-15T16:19:29;11.00;99.90
2022;DHT22;1015;49.756;6.994;2022-11-15T16:21:56;10.90;99.90
2022;DHT22;1015;49.756;6.994;2022-11-15T16:24:23;10.90;99.90
2022;DHT22;1015;49.756;6.994;2022-11-15T16:26:50;10.90;99.90
2022;DHT22;1015;49.756;6.994;2022-11-15T16:29:18;10.80;99.90
2022;DHT22;1015;49.756;6.994;2022-11-15T16:31:45;10.80;99.90
2022;DHT22;1015;49.756;6.994;2022-11-15T16:34:13;10.80;99.90
2022;DHT22;1015;49.756;6.994;2022-11-15T16:36:40;10.90;99.90
2022;DHT22;1015;49.756;6.994;2022-11-15T16:39:11;10.90;99.90
2022;DHT22;1015;49.756;6.994;2022-11-15T16:41:40;10.80;99.90
2022;DHT22;1015;49.756;6.994;2022-11-15T16:44:08;10.80;99.90
2022;DHT22;1015;49.756;6.994;2022-11-15T16:46:35;10.80;99.90
2022;DHT22;1015;49.756;6.994;2022-11-15T16:49:03;10.90;99.90